Latest Weather Observations for Adelaide

IDS60901

Issued at 2:11 pm CST Monday 3 August 2015 (issued every 10 minutes, with the page automatically refreshed every 10 minutes)

About weather observations | Map of Adelaide area stations | Latest observations for Adelaide area | Other Formats
Station Details ID: 023090 Name: KENT TOWN Lat: -34.92 Lon: 138.62 Height: 48.0 m
Data from the previous 72 hours. | See also: Recent months at Adelaide
Date/Time
CST
Tmp

°C
App
Tmp
°C
Dew
Point
°C
Rel
Hum
%
Delta-T

°C
Wind Press
QNH
hPa
Press
MSL
hPa
Rain
since
9 am
mm
Dir
 
Spd
km/h
Gust
km/h
Spd
kts
Gust
kts
03/02:00pm 12.5 8.4 6.1 65 3.0 SW 17 28 9 15 1025.1 - 0.2
03/01:30pm 13.3 8.3 4.8 56 3.9 SW 20 33 11 18 1025.2 - 0.2
03/01:00pm 13.5 9.3 5.9 60 3.6 SW 17 30 9 16 1025.4 - 0.2
03/12:30pm 13.0 8.6 5.0 58 3.7 SW 17 33 9 18 1025.6 - 0.0
03/12:00pm 12.7 8.1 5.6 62 3.3 SW 19 33 10 18 1025.8 1025.9 0.0
03/11:30am 12.9 8.8 6.4 64 3.1 SW 17 26 9 14 1025.9 - 0.0
03/11:00am 12.4 8.4 6.7 68 2.7 SW 17 26 9 14 1025.9 - 0.0
03/10:30am 12.5 8.1 6.4 66 2.9 SW 19 28 10 15 1025.9 - 0.0
03/10:00am 11.8 7.4 7.2 73 2.2 SW 20 33 11 18 1025.7 - 0.0
03/09:30am 11.5 8.4 7.3 75 2.0 SW 13 20 7 11 1025.6 - 0.0
03/09:00am 11.2 6.9 6.8 74 2.1 SSW 19 37 10 20 1025.3 1025.4 2.6
03/08:30am 11.0 8.3 7.4 78 1.7 SW 11 20 6 11 1024.9 - 2.6
03/08:00am 10.5 7.9 7.6 82 1.4 SW 11 20 6 11 1024.6 - 2.6
03/07:30am 10.5 7.5 7.8 83 1.3 SW 13 19 7 10 1024.3 - 2.6
03/07:00am 10.2 7.2 7.9 86 1.1 SW 13 19 7 10 1023.9 - 2.6
03/06:30am 10.4 8.0 8.6 89 0.9 SW 11 22 6 12 1023.5 - 2.6
03/06:00am 10.2 7.0 8.6 90 0.8 WSW 15 32 8 17 1023.2 1023.3 2.6
03/05:30am 11.1 7.9 6.9 75 2.0 SW 13 22 7 12 1023.0 - 2.6
03/05:00am 10.9 8.0 6.6 75 2.0 WSW 11 20 6 11 1022.8 - 2.6
03/04:30am 10.7 8.0 7.3 79 1.6 WSW 11 17 6 9 1022.7 - 2.6
03/04:00am 10.6 7.6 7.9 83 1.3 SW 13 20 7 11 1022.7 - 2.6
03/03:30am 10.3 7.0 8.2 87 1.0 SW 15 22 8 12 1022.8 - 2.6
03/03:00am 10.3 6.3 8.9 91 0.7 WSW 20 41 11 22 1022.8 1022.9 2.6
03/02:30am 10.6 7.7 9.8 95 0.4 WSW 15 26 8 14 1022.7 - 1.8
03/02:00am 10.7 7.9 9.9 95 0.4 W 15 26 8 14 1022.7 - 1.2
03/01:30am 10.9 8.7 9.5 91 0.7 W 11 20 6 11 1022.6 - 1.0
03/01:00am 10.9 8.6 8.9 87 1.0 W 11 17 6 9 1022.5 - 0.8
03/12:30am 11.4 9.2 9.2 86 1.1 WSW 11 20 6 11 1022.6 - 0.8
03/12:00am 11.5 8.0 8.9 84 1.3 WSW 17 32 9 17 1022.8 1022.9 0.8
 
Date/Time
CST
Tmp

°C
App
Tmp
°C
Dew
Point
°C
Rel
Hum
%
Delta-T

°C
Wind Press
QNH
hPa
Press
MSL
hPa
Rain
since
9 am
mm
Dir
 
Spd
km/h
Gust
km/h
Spd
kts
Gust
kts
02/11:30pm 11.5 8.7 8.7 83 1.4 W 13 28 7 15 1022.8 - 0.8
02/11:00pm 11.3 9.1 8.0 80 1.6 W 9 15 5 8 1022.6 - 0.8
02/10:30pm 11.5 9.3 7.8 78 1.8 W 9 20 5 11 1022.6 - 0.8
02/10:00pm 11.2 9.1 8.1 81 1.5 W 9 19 5 10 1022.8 - 0.8
02/09:30pm 11.3 8.8 8.4 82 1.4 W 11 17 6 9 1022.6 - 0.8
02/09:00pm 11.5 9.1 8.7 83 1.4 W 11 17 6 9 1022.6 1022.7 0.8
02/08:30pm 11.6 8.8 8.6 82 1.5 WSW 13 19 7 10 1022.5 - 0.8
02/08:00pm 11.6 8.1 8.8 83 1.4 WSW 17 30 9 16 1022.2 - 0.8
02/07:30pm 11.5 8.6 9.5 87 1.0 WSW 15 28 8 15 1022.0 - 0.8
02/07:00pm 11.1 9.0 9.9 92 0.6 W 11 24 6 13 1021.8 - 0.8
02/06:30pm 11.8 9.0 8.6 81 1.6 W 13 22 7 12 1021.4 - 0.2
02/06:00pm 11.9 9.0 8.2 78 1.8 W 13 24 7 13 1021.2 1021.3 0.2
02/05:30pm 12.3 9.5 8.5 77 1.9 WSW 13 22 7 12 1021.0 - 0.2
02/05:00pm 12.2 8.4 9.2 82 1.5 WSW 19 33 10 18 1020.7 - 0.2
02/04:30pm 13.3 9.4 8.5 72 2.4 WSW 19 30 10 16 1020.5 - 0.0
02/04:00pm 13.2 9.6 8.4 72 2.4 W 17 28 9 15 1020.3 - 0.0
02/03:30pm 13.8 10.7 8.8 72 2.5 W 15 24 8 13 1020.3 - 0.0
02/03:00pm 13.4 9.3 7.9 69 2.7 W 19 26 10 14 1020.1 1020.2 0.0
02/02:30pm 13.3 10.3 9.1 76 2.1 WSW 15 28 8 15 1019.9 - 0.0
02/02:00pm 13.9 10.0 7.1 63 3.3 WSW 17 28 9 15 1019.9 - 0.0
02/01:30pm 13.5 9.7 7.6 67 2.9 W 17 28 9 15 1019.9 - 0.0
02/01:00pm 13.9 10.5 7.6 66 3.1 W 15 28 8 15 1020.0 - 0.0
02/12:30pm 13.5 9.4 7.8 68 2.8 W 19 30 10 16 1020.4 - 0.0
02/12:00pm 13.3 9.4 7.3 67 2.9 W 17 28 9 15 1020.5 1020.6 0.0
02/11:30am 12.9 9.0 7.3 69 2.7 W 17 30 9 16 1020.8 - 0.0
02/11:00am 12.5 8.6 7.3 70 2.5 WSW 17 30 9 16 1020.8 - 0.0
02/10:30am 11.6 7.1 6.8 72 2.3 WSW 20 33 11 18 1020.9 - 0.0
02/10:00am 11.4 7.7 6.5 72 2.3 W 15 22 8 12 1020.7 - 0.0
02/09:30am 11.3 7.2 6.2 71 2.4 WSW 17 30 9 16 1020.6 - 0.0
02/09:00am 10.9 8.6 7.6 80 1.6 W 9 13 5 7 1020.2 1020.3 7.0
02/08:30am 10.0 8.1 6.8 80 1.5 W 6 13 3 7 1020.1 - 7.0
02/08:00am 8.9 5.9 6.1 82 1.3 WSW 11 15 6 8 1020.0 - 7.0
02/07:30am 8.6 5.8 6.9 89 0.8 WSW 11 17 6 9 1019.8 - 7.0
02/07:00am 8.8 6.9 7.5 91 0.6 W 7 13 4 7 1019.4 - 6.8
02/06:30am 8.5 6.1 7.0 90 0.7 WSW 9 15 5 8 1019.2 - 6.8
02/06:00am 8.3 7.8 7.7 96 0.3 CALM 0 6 0 3 1018.8 1018.9 6.6
02/05:30am 8.3 7.0 7.7 96 0.3 ENE 4 7 2 4 1018.6 - 6.6
02/05:00am 8.3 7.8 7.7 96 0.3 CALM 0 0 0 0 1018.5 - 6.6
02/04:30am 8.4 7.8 7.6 95 0.4 CALM 0 0 0 0 1018.5 - 6.6
02/04:00am 8.4 7.8 7.3 93 0.5 CALM 0 0 0 0 1018.4 - 6.6
02/03:30am 8.2 7.6 7.6 96 0.3 CALM 0 6 0 3 1018.5 - 6.6
02/03:00am 8.1 7.5 7.5 96 0.3 CALM 0 0 0 0 1018.7 1018.8 6.6
02/02:30am 8.4 7.8 7.3 93 0.5 CALM 0 0 0 0 1018.6 - 6.6
02/02:00am 8.3 7.8 7.7 96 0.3 CALM 0 0 0 0 1018.7 - 6.6
02/01:30am 8.2 7.6 7.6 96 0.3 CALM 0 0 0 0 1019.1 - 6.6
02/01:00am 8.3 7.7 7.2 93 0.5 CALM 0 0 0 0 1019.0 - 6.6
02/12:30am 8.5 8.0 7.7 95 0.4 CALM 0 6 0 3 1019.3 - 6.6
02/12:00am 8.6 8.1 8.0 96 0.3 CALM 0 0 0 0 1019.5 1019.6 6.6
 
Date/Time
CST
Tmp

°C
App
Tmp
°C
Dew
Point
°C
Rel
Hum
%
Delta-T

°C
Wind Press
QNH
hPa
Press
MSL
hPa
Rain
since
9 am
mm
Dir
 
Spd
km/h
Gust
km/h
Spd
kts
Gust
kts
01/11:30pm 8.5 7.3 8.1 97 0.2 SSW 4 7 2 4 1019.2 - 6.6
01/11:00pm 8.6 8.1 8.0 96 0.3 CALM 0 0 0 0 1019.1 - 6.6
01/10:30pm 8.5 8.1 8.1 97 0.2 CALM 0 0 0 0 1019.1 - 6.4
01/10:00pm 8.5 7.6 7.9 96 0.3 S 2 6 1 3 1018.9 - 6.4
01/09:30pm 8.8 8.4 8.2 96 0.3 CALM 0 6 0 3 1018.7 - 5.6
01/09:00pm 9.1 8.3 8.3 95 0.4 S 2 7 1 4 1018.1 1018.2 4.8
01/08:30pm 9.8 8.7 8.6 92 0.6 SSE 4 9 2 5 1017.9 - 4.2
01/08:00pm 9.9 9.7 9.1 95 0.4 CALM 0 7 0 4 1018.2 - 3.8
01/07:30pm 9.9 9.3 9.1 95 0.4 WSW 2 9 1 5 1017.9 - 3.8
01/07:00pm 10.0 9.8 9.0 93 0.5 CALM 0 0 0 0 1017.6 - 3.6
01/06:30pm 10.1 9.7 8.2 88 0.9 CALM 0 0 0 0 1017.1 - 3.6
01/06:00pm 10.1 9.4 8.5 90 0.8 SSW 2 7 1 4 1016.8 1016.9 3.6
01/05:30pm 10.5 8.9 8.0 84 1.2 SW 6 13 3 7 1016.8 - 3.6
01/05:00pm 10.8 10.6 9.0 89 0.9 CALM 0 0 0 0 1016.6 - 3.6
01/04:30pm 11.2 10.2 7.5 78 1.8 ESE 2 7 1 4 1016.2 - 3.6
01/04:00pm 11.1 10.7 8.2 82 1.4 CALM 0 0 0 0 1016.2 - 3.6
01/03:30pm 11.2 10.4 8.3 82 1.4 E 2 7 1 4 1015.5 - 3.6
01/03:00pm 11.3 11.0 8.5 83 1.4 CALM 0 0 0 0 1016.0 1016.1 3.6
01/02:30pm 11.1 10.1 8.7 85 1.2 SSW 4 9 2 5 1015.9 - 3.4
01/02:00pm 11.1 9.5 8.2 82 1.4 SE 6 11 3 6 1015.9 - 3.4
01/01:30pm 10.9 9.4 9.1 89 0.9 S 7 15 4 8 1016.8 - 3.4
01/01:00pm 10.7 7.8 9.7 93 0.5 WSW 15 24 8 13 1018.7 - 3.4
01/12:45pm 11.2 9.9 10.0 92 0.6 N 7 11 4 6 1017.4 - 3.2
01/12:30pm 11.2 9.5 9.8 91 0.7 ENE 9 17 5 9 1015.4 - 3.2
01/12:17pm 10.7 9.0 9.7 93 0.5 E 9 15 5 8 1016.5 - 3.2
01/12:00pm 10.6 9.4 9.4 92 0.6 SSW 6 11 3 6 1018.5 1018.6 2.2
01/11:30am 10.8 8.4 10.0 95 0.4 SW 13 19 7 10 1017.7 - 1.4
01/11:00am 11.1 11.2 10.1 94 0.5 CALM 0 6 0 3 1016.6 - 1.4
01/10:30am 11.0 10.7 10.2 95 0.4 E 2 7 1 4 1017.0 - 1.0
01/10:00am 10.8 9.4 9.6 92 0.6 S 7 15 4 8 1016.7 - 0.6
01/09:30am 10.7 9.0 9.7 93 0.5 SSW 9 15 5 8 1017.0 - 0.0
01/09:00am 10.8 9.5 10.0 95 0.4 SSW 7 13 4 7 1015.9 1016.0 11.0
01/08:30am 10.8 9.6 10.4 97 0.2 SSW 7 11 4 6 1016.0 - 10.8
01/08:00am 10.8 9.7 10.6 99 0.1 SSW 7 11 4 6 1016.1 - 10.6
01/07:30am 10.8 9.8 10.4 97 0.2 SSW 6 9 3 5 1015.7 - 9.0
01/07:00am 10.9 9.4 10.5 97 0.2 WSW 9 13 5 7 1015.5 - 7.6
01/06:30am 10.9 9.4 10.5 97 0.2 WSW 9 15 5 8 1014.7 - 7.4
01/06:00am 10.8 9.8 10.4 97 0.2 SW 6 9 3 5 1014.2 1014.2 6.4
01/05:30am 10.8 9.3 10.4 97 0.2 SSW 9 20 5 11 1014.0 - 6.0
01/05:00am 11.1 8.1 10.7 97 0.2 SSW 17 30 9 16 1013.9 - 5.0
01/04:30am 13.2 11.9 12.6 96 0.3 NW 11 19 6 10 1012.9 - 3.8
01/04:00am 13.2 12.3 12.5 95 0.4 NW 9 15 5 8 1012.5 - 3.0
01/03:30am 13.2 11.9 12.5 95 0.4 NNW 11 19 6 10 1012.8 - 2.8
01/03:00am 13.3 12.3 12.4 94 0.5 N 9 13 5 7 1013.0 1013.0 2.2
01/02:30am 13.4 13.0 12.5 94 0.5 N 6 11 3 6 1013.1 - 1.4
01/02:00am 13.5 13.0 12.2 92 0.7 N 6 9 3 5 1013.2 - 0.8
01/01:30am 13.4 12.3 12.1 92 0.7 N 9 13 5 7 1013.0 - 0.8
01/01:00am 13.2 12.1 11.9 92 0.7 N 9 17 5 9 1013.2 - 0.6
01/12:30am 13.1 11.9 11.6 91 0.8 N 9 13 5 7 1013.4 - 0.6
01/12:00am 12.9 11.7 11.6 92 0.7 N 9 13 5 7 1013.6 1013.6 0.6
 
Date/Time
CST
Tmp

°C
App
Tmp
°C
Dew
Point
°C
Rel
Hum
%
Delta-T

°C
Wind Press
QNH
hPa
Press
MSL
hPa
Rain
since
9 am
mm
Dir
 
Spd
km/h
Gust
km/h
Spd
kts
Gust
kts
31/11:30pm 12.8 11.4 10.9 88 1.0 N 9 15 5 8 1014.0 - 0.4
31/11:00pm 13.2 11.2 10.1 81 1.6 N 11 15 6 8 1014.3 - 0.0
31/10:30pm 13.8 11.8 8.6 71 2.6 N 9 15 5 8 1014.2 - 0.0
31/10:00pm 13.5 11.8 8.5 72 2.5 NNE 7 9 4 5 1014.4 - 0.0
31/09:30pm 12.9 12.6 8.7 75 2.1 CALM 0 0 0 0 1014.3 - 0.0
31/09:00pm 12.7 12.3 8.3 74 2.2 CALM 0 0 0 0 1014.6 1014.7 0.0
31/08:30pm 12.1 11.9 8.9 81 1.6 CALM 0 0 0 0 1014.8 - 0.0
31/08:00pm 11.9 11.7 9.1 83 1.4 CALM 0 0 0 0 1014.6 - 0.0
31/07:30pm 12.1 12.0 9.5 84 1.3 CALM 0 0 0 0 1014.8 - 0.0
31/07:00pm 12.5 12.3 8.9 79 1.8 CALM 0 0 0 0 1014.8 - 0.0
31/06:30pm 13.3 13.0 8.5 72 2.4 CALM 0 0 0 0 1014.7 - 0.0
31/06:00pm 13.9 12.3 8.1 68 2.9 N 6 7 3 4 1014.8 1014.9 0.0
31/05:30pm 14.3 12.8 8.3 67 3.0 N 6 9 3 5 1014.9 - 0.0
31/05:00pm 14.7 13.1 7.9 63 3.4 NNW 6 9 3 5 1015.2 - 0.0
31/04:30pm 15.0 13.2 7.8 62 3.6 WNW 7 15 4 8 1015.6 - 0.0
31/04:00pm 15.2 12.5 7.3 59 3.9 NW 11 15 6 8 1015.8 - 0.0
31/03:30pm 15.6 12.5 7.1 57 4.2 NW 13 22 7 12 1016.1 - 0.0
31/03:00pm 15.7 12.8 6.7 55 4.4 NNW 11 19 6 10 1016.0 1016.1 0.0
31/02:30pm 15.6 12.3 6.3 54 4.5 NNW 13 22 7 12 1016.3 - 0.0

Latest Capital City Observations: Canberra | Sydney | Melbourne | Brisbane | Adelaide | Perth | Hobart | Darwin

Other Formats:

Comma delimited format used in spreadsheet applications
http://www.bom.gov.au/fwo/IDS60901/IDS60901.94675.axf

JavaScript Object Notation format (JSON) in row-major order
http://www.bom.gov.au/fwo/IDS60901/IDS60901.94675.json